Time;durP1;ratioP1;P1;durP2;ratioP2;P2;SDS_P1;SDS_P2;PMS_P1;PMS_P2;Temp;Humidity;BMP_temperature;BMP_pressure;BME280_temperature;BME280_humidity;BME280_pressure;Samples;Min_cycle;Max_cycle;Signal;HPM_P1;HPM_P2
2024/01/21 00:02:21;;;;;;;6.05;3.25;;;1.00;90.60;;;;;;5105326;28;20031;-41
2024/01/21 00:04:47;;;;;;;9.38;3.22;;;1.00;90.80;;;;;;5107452;28;20488;-42
2024/01/21 00:07:12;;;;;;;7.10;3.08;;;1.10;90.00;;;;;;5102719;28;20382;-42
2024/01/21 00:09:38;;;;;;;6.82;3.20;;;1.10;90.00;;;;;;5102319;28;20023;-41
2024/01/21 00:12:04;;;;;;;5.25;2.70;;;1.10;90.20;;;;;;5105528;28;20478;-42
2024/01/21 00:14:29;;;;;;;4.95;2.70;;;1.10;90.10;;;;;;5096891;28;20428;-42
2024/01/21 00:16:55;;;;;;;4.32;2.90;;;1.20;89.60;;;;;;5103598;28;20028;-41
2024/01/21 00:19:21;;;;;;;8.38;2.95;;;1.20;89.60;;;;;;5105215;28;20024;-42
2024/01/21 00:21:46;;;;;;;5.18;2.50;;;1.20;88.30;;;;;;5106953;28;20016;-43
2024/01/21 00:24:12;;;;;;;3.67;2.47;;;1.20;87.60;;;;;;5098097;28;20028;-42
2024/01/21 00:26:38;;;;;;;3.83;2.30;;;1.30;87.70;;;;;;5107388;28;20020;-42
2024/01/21 00:29:04;;;;;;;4.78;2.70;;;1.30;88.50;;;;;;5106627;28;20103;-42
2024/01/21 00:31:30;;;;;;;3.97;2.40;;;1.30;88.90;;;;;;5107740;28;20500;-42
2024/01/21 00:33:56;;;;;;;5.50;2.78;;;1.20;88.90;;;;;;5099289;28;20027;-43
2024/01/21 00:36:21;;;;;;;5.32;2.63;;;1.20;87.80;;;;;;5100378;28;20476;-41
2024/01/21 00:38:47;;;;;;;4.32;2.55;;;1.30;87.10;;;;;;5107754;28;20450;-43
2024/01/21 00:41:14;;;;;;;4.45;2.35;;;1.20;88.40;;;;;;5106490;28;20028;-42
2024/01/21 00:43:39;;;;;;;5.18;2.60;;;1.20;88.00;;;;;;5103081;28;20072;-42
2024/01/21 00:46:05;;;;;;;6.05;2.90;;;1.30;87.50;;;;;;5106699;28;20028;-43
2024/01/21 00:48:31;;;;;;;3.97;2.17;;;1.30;88.50;;;;;;5107570;28;20027;-42
2024/01/21 00:50:57;;;;;;;5.40;2.40;;;1.30;87.70;;;;;;5096316;28;20031;-42
2024/01/21 00:53:22;;;;;;;5.97;2.42;;;1.30;88.10;;;;;;5088705;28;20470;-41
2024/01/21 00:55:48;;;;;;;3.67;2.03;;;1.30;88.40;;;;;;5088232;28;20024;-44
2024/01/21 00:58:13;;;;;;;4.00;2.28;;;1.30;86.80;;;;;;5088496;28;20020;-42
2024/01/21 01:00:39;;;;;;;4.18;2.85;;;1.30;86.60;;;;;;5094622;28;20018;-43
2024/01/21 01:03:05;;;;;;;3.72;2.33;;;1.30;86.00;;;;;;5106998;28;20374;-42
2024/01/21 01:05:30;;;;;;;4.43;2.38;;;1.40;86.30;;;;;;5108099;28;20043;-43
2024/01/21 01:07:56;;;;;;;3.25;2.13;;;1.40;85.80;;;;;;5107489;28;20259;-45
2024/01/21 01:10:21;;;;;;;4.80;2.50;;;1.40;86.40;;;;;;5107647;28;20027;-43
2024/01/21 01:12:47;;;;;;;4.05;2.70;;;1.40;85.50;;;;;;5108134;28;20024;-41
2024/01/21 01:15:13;;;;;;;4.35;2.10;;;1.40;85.30;;;;;;5107490;28;20032;-41
2024/01/21 01:17:38;;;;;;;4.20;1.95;;;1.40;85.00;;;;;;5107686;28;20409;-42
2024/01/21 01:20:06;;;;;;;3.33;1.90;;;1.50;83.60;;;;;;5106954;28;20030;-42
2024/01/21 01:22:32;;;;;;;5.13;2.65;;;1.50;84.40;;;;;;5107915;28;20027;-40
2024/01/21 01:24:57;;;;;;;3.90;2.22;;;1.50;83.90;;;;;;5107441;28;20476;-40
2024/01/21 01:27:24;;;;;;;4.35;2.15;;;1.50;83.00;;;;;;5108017;28;20327;-42
2024/01/21 01:29:50;;;;;;;4.50;2.28;;;1.50;82.00;;;;;;5107609;28;20015;-40
2024/01/21 01:32:16;;;;;;;3.47;2.20;;;1.60;81.50;;;;;;5107529;28;20492;-42
2024/01/21 01:34:42;;;;;;;3.78;2.40;;;1.60;81.60;;;;;;5108144;28;20284;-41
2024/01/21 01:37:09;;;;;;;4.65;2.20;;;1.60;82.20;;;;;;5107453;28;20094;-43
2024/01/21 01:39:35;;;;;;;3.92;2.15;;;1.60;81.90;;;;;;5111190;28;20138;-42
2024/01/21 01:42:00;;;;;;;3.63;1.98;;;1.60;81.50;;;;;;5111566;28;20084;-42
2024/01/21 01:44:26;;;;;;;2.97;1.85;;;1.60;81.10;;;;;;5112516;28;20107;-40
2024/01/21 01:46:52;;;;;;;5.47;2.03;;;1.60;80.20;;;;;;5112793;28;20020;-42
2024/01/21 01:49:19;;;;;;;4.57;1.70;;;1.70;79.80;;;;;;5112097;28;20015;-41
2024/01/21 01:51:45;;;;;;;2.80;1.63;;;1.70;78.60;;;;;;5112132;28;20431;-40
2024/01/21 01:54:11;;;;;;;4.10;1.67;;;1.80;79.70;;;;;;5112443;28;20027;-40
2024/01/21 01:56:38;;;;;;;1.50;1.40;;;1.80;78.10;;;;;;5112280;28;20022;-41
2024/01/21 01:59:08;;;;;;;2.60;1.30;;;1.90;77.70;;;;;;5112128;28;20023;-40
2024/01/21 02:01:36;;;;;;;2.20;1.40;;;1.90;76.40;;;;;;5098379;28;20477;-41
2024/01/21 02:04:03;;;;;;;1.73;1.50;;;2.00;74.90;;;;;;5090547;28;20485;-41
2024/01/21 02:06:29;;;;;;;2.80;1.52;;;2.00;76.00;;;;;;5092097;28;20051;-41
2024/01/21 02:08:54;;;;;;;1.67;1.40;;;2.00;76.30;;;;;;5091938;28;20024;-40
2024/01/21 02:11:20;;;;;;;1.67;1.40;;;2.00;75.60;;;;;;5091620;28;20094;-41
2024/01/21 02:13:45;;;;;;;4.30;1.73;;;2.10;73.90;;;;;;5090683;28;20031;-41
2024/01/21 02:16:11;;;;;;;1.77;1.27;;;2.10;74.50;;;;;;5091769;28;20032;-40
2024/01/21 02:18:37;;;;;;;3.58;1.42;;;2.10;74.00;;;;;;5091943;28;20016;-40
2024/01/21 02:21:03;;;;;;;1.58;0.98;;;2.10;73.10;;;;;;5091580;28;20019;-42
2024/01/21 02:23:29;;;;;;;3.60;1.52;;;2.10;73.50;;;;;;5091973;28;20023;-41
2024/01/21 02:25:55;;;;;;;5.32;2.40;;;2.10;72.30;;;;;;5091721;28;20381;-42
2024/01/21 02:28:21;;;;;;;4.50;1.27;;;2.10;72.70;;;;;;5091960;28;20406;-40
2024/01/21 02:30:46;;;;;;;1.95;1.30;;;2.10;72.10;;;;;;5090197;28;20028;-42
2024/01/21 02:33:13;;;;;;;3.72;1.60;;;2.10;71.40;;;;;;5090679;28;20080;-41
2024/01/21 02:35:38;;;;;;;1.45;1.05;;;2.10;71.00;;;;;;5090512;28;20027;-41
2024/01/21 02:38:04;;;;;;;2.10;1.20;;;2.10;70.80;;;;;;5090512;28;20477;-41
2024/01/21 02:40:30;;;;;;;1.77;1.10;;;2.20;71.20;;;;;;5091463;28;20085;-41
2024/01/21 02:42:56;;;;;;;1.25;1.00;;;2.10;72.00;;;;;;5092026;28;20012;-42
2024/01/21 02:45:21;;;;;;;1.20;1.10;;;2.20;70.00;;;;;;5091345;28;20098;-42
2024/01/21 02:47:47;;;;;;;2.10;1.27;;;2.10;71.30;;;;;;5091798;28;20054;-42
2024/01/21 02:50:12;;;;;;;1.83;1.10;;;2.20;70.10;;;;;;5092421;28;20512;-42
2024/01/21 02:52:38;;;;;;;2.58;1.67;;;2.10;71.80;;;;;;5098121;28;20369;-42
2024/01/21 02:55:04;;;;;;;1.98;1.60;;;2.10;72.10;;;;;;5090674;28;20055;-41
2024/01/21 02:57:29;;;;;;;4.97;1.50;;;2.10;71.30;;;;;;5091835;28;20456;-41
2024/01/21 02:59:55;;;;;;;0.95;0.90;;;2.10;71.00;;;;;;5091824;28;20389;-41
2024/01/21 03:02:21;;;;;;;1.65;1.00;;;2.10;70.20;;;;;;5090781;28;20115;-42
2024/01/21 03:04:46;;;;;;;2.85;1.35;;;2.10;70.90;;;;;;5090794;28;20023;-42
2024/01/21 03:07:12;;;;;;;1.95;1.00;;;2.10;69.00;;;;;;5091906;28;20035;-41
2024/01/21 03:09:37;;;;;;;1.23;0.98;;;2.10;69.10;;;;;;5092013;28;20217;-41
2024/01/21 03:12:03;;;;;;;1.65;0.95;;;2.10;70.40;;;;;;5090564;28;20028;-40
2024/01/21 03:14:28;;;;;;;1.70;0.93;;;2.10;70.20;;;;;;5090460;28;20020;-46
2024/01/21 03:16:54;;;;;;;1.85;1.33;;;2.00;70.40;;;;;;5092057;28;20044;-42
2024/01/21 03:19:20;;;;;;;1.70;1.30;;;2.00;69.60;;;;;;5092605;28;20034;-42
2024/01/21 03:21:45;;;;;;;2.70;1.05;;;2.00;71.20;;;;;;5090349;28;20012;-41
2024/01/21 03:24:11;;;;;;;1.40;1.17;;;2.00;69.30;;;;;;5091936;28;20031;-41
2024/01/21 03:26:36;;;;;;;1.30;0.93;;;2.00;69.40;;;;;;5091513;28;20115;-41
2024/01/21 03:29:02;;;;;;;2.40;1.10;;;2.10;69.40;;;;;;5092340;28;20024;-42
2024/01/21 03:31:28;;;;;;;3.22;1.52;;;2.00;68.90;;;;;;5089705;28;20059;-42
2024/01/21 03:33:54;;;;;;;1.75;1.25;;;2.00;69.20;;;;;;5091581;28;20020;-41
2024/01/21 03:36:19;;;;;;;2.10;1.15;;;2.00;68.80;;;;;;5091979;28;20039;-42
2024/01/21 03:38:46;;;;;;;3.72;1.20;;;2.00;69.60;;;;;;5091930;28;20024;-43
2024/01/21 03:41:12;;;;;;;2.33;1.38;;;2.00;70.60;;;;;;5092839;28;20028;-40
2024/01/21 03:43:38;;;;;;;2.13;1.25;;;1.90;69.20;;;;;;5092213;28;20028;-41
2024/01/21 03:46:03;;;;;;;1.30;1.13;;;1.90;69.00;;;;;;5093085;28;20039;-41
2024/01/21 03:48:29;;;;;;;1.38;1.08;;;1.90;69.00;;;;;;5091943;28;20056;-43
2024/01/21 03:50:54;;;;;;;3.15;1.23;;;1.80;72.90;;;;;;5091823;28;20028;-42
2024/01/21 03:53:20;;;;;;;2.78;1.20;;;1.70;79.30;;;;;;5093201;28;20052;-41
2024/01/21 03:55:46;;;;;;;1.17;1.00;;;1.50;75.80;;;;;;5091852;28;20474;-41
2024/01/21 03:58:11;;;;;;;1.77;0.90;;;1.50;79.20;;;;;;5093023;28;20028;-41
2024/01/21 04:00:37;;;;;;;2.35;1.15;;;1.40;81.60;;;;;;5090018;28;20386;-41
2024/01/21 04:03:03;;;;;;;0.98;0.88;;;1.30;80.00;;;;;;5098511;28;20038;-42
2024/01/21 04:05:28;;;;;;;1.23;1.02;;;1.30;82.80;;;;;;5092265;28;20385;-41
2024/01/21 04:07:54;;;;;;;1.27;1.05;;;1.20;77.40;;;;;;5092499;28;20020;-41
2024/01/21 04:10:19;;;;;;;1.25;1.13;;;1.30;78.70;;;;;;5093390;28;20107;-44
2024/01/21 04:12:45;;;;;;;1.45;1.20;;;1.20;81.50;;;;;;5092598;28;20105;-42
2024/01/21 04:15:11;;;;;;;4.07;1.20;;;1.00;80.90;;;;;;5093485;28;20034;-42
2024/01/21 04:17:36;;;;;;;1.67;1.20;;;0.90;84.50;;;;;;5092186;28;20051;-40
2024/01/21 04:20:02;;;;;;;4.28;1.80;;;0.80;83.80;;;;;;5092646;28;20477;-43
2024/01/21 04:22:28;;;;;;;4.38;1.58;;;0.80;83.30;;;;;;5092548;28;20026;-43
2024/01/21 04:24:53;;;;;;;5.22;1.65;;;0.70;88.10;;;;;;5090916;28;20012;-43
2024/01/21 04:27:19;;;;;;;2.35;1.58;;;0.60;87.20;;;;;;5093430;28;20032;-41
2024/01/21 04:29:45;;;;;;;2.28;1.63;;;0.50;91.40;;;;;;5092093;28;20398;-41
2024/01/21 04:32:11;;;;;;;4.68;1.77;;;0.40;87.30;;;;;;5093067;28;20031;-40
2024/01/21 04:34:36;;;;;;;4.57;1.80;;;0.40;89.00;;;;;;5092137;28;20378;-41
2024/01/21 04:37:02;;;;;;;3.17;1.83;;;0.30;88.60;;;;;;5092978;28;20043;-41
2024/01/21 04:39:28;;;;;;;2.33;1.40;;;0.30;87.10;;;;;;5092803;28;20043;-41
2024/01/21 04:41:54;;;;;;;3.72;2.28;;;0.30;89.00;;;;;;5092001;28;20016;-41
2024/01/21 04:44:19;;;;;;;3.90;1.75;;;0.30;90.10;;;;;;5093886;28;20030;-41
2024/01/21 04:46:45;;;;;;;3.75;2.28;;;0.20;91.00;;;;;;5092250;28;20330;-40
2024/01/21 04:49:10;;;;;;;3.55;2.17;;;0.20;90.00;;;;;;5093873;28;20070;-42
2024/01/21 04:51:37;;;;;;;3.25;2.10;;;0.20;90.20;;;;;;5092169;28;20015;-41
2024/01/21 04:54:03;;;;;;;2.70;2.00;;;0.20;91.40;;;;;;5093240;28;20020;-41
2024/01/21 04:56:29;;;;;;;7.57;2.35;;;0.20;90.40;;;;;;5093219;28;20035;-41
2024/01/21 04:58:55;;;;;;;3.35;1.88;;;0.20;91.20;;;;;;5090829;28;20020;-42
2024/01/21 05:01:23;;;;;;;4.15;2.20;;;0.20;91.20;;;;;;5093862;28;20080;-41
2024/01/21 05:03:48;;;;;;;3.13;1.73;;;0.30;90.60;;;;;;5092367;28;20016;-42
2024/01/21 05:06:14;;;;;;;5.93;2.08;;;0.30;90.70;;;;;;5094023;28;20507;-42
2024/01/21 05:08:40;;;;;;;2.47;1.80;;;0.30;91.70;;;;;;5092374;28;20020;-42
2024/01/21 05:11:06;;;;;;;3.15;2.17;;;0.20;91.70;;;;;;5093514;28;20026;-41
2024/01/21 05:13:31;;;;;;;4.20;2.10;;;0.30;93.30;;;;;;5092602;28;20469;-41
2024/01/21 05:15:57;;;;;;;4.13;2.45;;;0.20;92.90;;;;;;5092421;28;20031;-42
2024/01/21 05:18:23;;;;;;;3.97;2.67;;;0.30;92.70;;;;;;5094327;28;20643;-43
2024/01/21 05:20:49;;;;;;;6.47;2.42;;;0.30;92.70;;;;;;5092386;28;20435;-41
2024/01/21 05:23:14;;;;;;;3.80;2.10;;;0.30;92.10;;;;;;5093242;28;20016;-41
2024/01/21 05:25:40;;;;;;;2.92;2.00;;;0.30;93.30;;;;;;5090382;28;20024;-43
2024/01/21 05:28:05;;;;;;;4.15;2.20;;;0.20;93.50;;;;;;5094034;28;20028;-42
2024/01/21 05:30:31;;;;;;;6.97;2.67;;;0.20;92.70;;;;;;5093039;28;20529;-42
2024/01/21 05:32:57;;;;;;;4.35;2.63;;;0.20;91.90;;;;;;5092666;28;20435;-42
2024/01/21 05:35:22;;;;;;;3.65;2.10;;;0.20;92.70;;;;;;5094724;28;20016;-41
2024/01/21 05:37:48;;;;;;;2.65;2.00;;;0.20;92.40;;;;;;5092989;28;20083;-41
2024/01/21 05:40:14;;;;;;;5.70;2.75;;;0.20;92.10;;;;;;5094439;28;20044;-42
2024/01/21 05:42:40;;;;;;;4.93;2.33;;;0.20;92.80;;;;;;5092948;28;20016;-41
2024/01/21 05:45:06;;;;;;;4.22;2.13;;;0.20;93.60;;;;;;5086255;28;20508;-43
2024/01/21 05:47:32;;;;;;;3.60;2.15;;;0.10;93.50;;;;;;5088659;28;20024;-41
2024/01/21 05:49:58;;;;;;;4.60;2.25;;;0.10;94.60;;;;;;5086960;28;20477;-40
2024/01/21 05:52:23;;;;;;;5.35;1.90;;;0.10;92.80;;;;;;5086467;28;20028;-41
2024/01/21 05:54:49;;;;;;;2.78;1.77;;;0.10;92.80;;;;;;5088320;28;20066;-41
2024/01/21 05:57:15;;;;;;;3.28;2.00;;;0.10;93.70;;;;;;5088834;28;20132;-42
2024/01/21 05:59:41;;;;;;;5.18;2.30;;;0.10;93.20;;;;;;5088196;28;20020;-42
2024/01/21 06:02:10;;;;;;;4.68;2.20;;;0.10;93.60;;;;;;5088507;28;20020;-40
2024/01/21 06:04:40;;;;;;;5.47;2.15;;;0.10;92.90;;;;;;5088419;28;20507;-41
2024/01/21 06:07:08;;;;;;;6.00;2.40;;;0.10;92.50;;;;;;5088747;28;20020;-42
2024/01/21 06:09:33;;;;;;;3.88;2.58;;;0.10;94.10;;;;;;5088374;28;20258;-40
2024/01/21 06:11:59;;;;;;;6.18;2.35;;;0.10;95.00;;;;;;5088442;28;20024;-42
2024/01/21 06:14:25;;;;;;;4.22;2.20;;;0.10;94.30;;;;;;5088442;28;20023;-41
2024/01/21 06:16:54;;;;;;;4.15;2.10;;;0.10;93.80;;;;;;5088796;28;20072;-41
2024/01/21 06:19:20;;;;;;;4.53;2.63;;;0.10;94.20;;;;;;5088961;28;20016;-41
2024/01/21 06:21:45;;;;;;;4.20;2.20;;;0.10;94.90;;;;;;5090170;28;20510;-42
2024/01/21 06:24:13;;;;;;;3.55;2.45;;;0.10;94.20;;;;;;5095384;28;20055;-40
2024/01/21 06:26:40;;;;;;;3.95;2.55;;;0.10;94.70;;;;;;5096103;28;20028;-42
2024/01/21 06:29:07;;;;;;;4.93;2.65;;;0.00;93.70;;;;;;5095899;28;20508;-41
2024/01/21 06:31:33;;;;;;;3.75;2.65;;;0.00;94.30;;;;;;5095407;28;20048;-42
2024/01/21 06:33:59;;;;;;;5.70;2.63;;;0.00;95.10;;;;;;5096026;28;20057;-42
2024/01/21 06:36:25;;;;;;;3.63;2.63;;;0.10;93.70;;;;;;5098008;28;20032;-43
2024/01/21 06:38:51;;;;;;;3.33;2.42;;;0.00;95.20;;;;;;5095761;28;20023;-43
2024/01/21 06:41:16;;;;;;;6.53;2.50;;;0.10;93.40;;;;;;5094840;28;20023;-43
2024/01/21 06:43:42;;;;;;;4.05;2.42;;;0.10;91.90;;;;;;5094793;28;20389;-42
2024/01/21 06:46:08;;;;;;;5.45;2.17;;;0.00;92.20;;;;;;5095914;28;20035;-42
2024/01/21 06:48:34;;;;;;;3.42;2.50;;;0.10;94.70;;;;;;5095362;28;20076;-42
2024/01/21 06:51:08;;;;;;;3.78;2.00;;;0.10;92.70;;;;;;5091697;28;20073;-42
2024/01/21 06:53:34;;;;;;;3.28;2.20;;;0.10;92.70;;;;;;5093332;28;20059;-41
2024/01/21 06:56:04;;;;;;;4.22;2.47;;;0.10;95.40;;;;;;5092151;28;20134;-43
2024/01/21 06:58:30;;;;;;;4.25;2.30;;;0.10;93.90;;;;;;5089991;28;20020;-41
2024/01/21 07:00:56;;;;;;;3.45;2.33;;;0.10;95.60;;;;;;5087891;28;20024;-42
2024/01/21 07:03:21;;;;;;;2.92;2.08;;;0.10;95.80;;;;;;5088592;28;20370;-42
2024/01/21 07:05:47;;;;;;;4.35;2.38;;;0.10;96.30;;;;;;5090885;28;20035;-41
2024/01/21 07:08:12;;;;;;;3.45;2.00;;;0.10;95.10;;;;;;5093357;28;20059;-41
2024/01/21 07:10:38;;;;;;;4.50;2.13;;;0.10;94.50;;;;;;5092952;28;20024;-41
2024/01/21 07:13:04;;;;;;;7.22;2.28;;;0.10;95.50;;;;;;5093239;28;20672;-42
2024/01/21 07:15:29;;;;;;;4.60;2.60;;;0.10;96.50;;;;;;5097118;28;20070;-43
2024/01/21 07:17:55;;;;;;;3.65;2.40;;;0.10;95.90;;;;;;5098450;28;20028;-42
2024/01/21 07:20:21;;;;;;;4.43;2.22;;;0.10;94.90;;;;;;5097431;28;20579;-42
2024/01/21 07:22:46;;;;;;;4.30;2.17;;;0.10;96.30;;;;;;5095207;28;20087;-40
2024/01/21 07:25:15;;;;;;;3.33;2.30;;;0.10;98.30;;;;;;5098936;28;20077;-38
2024/01/21 07:27:42;;;;;;;4.80;2.67;;;0.10;95.30;;;;;;5097655;28;20503;-41
2024/01/21 07:30:10;;;;;;;3.85;2.10;;;0.10;98.90;;;;;;5098534;28;20053;-42
2024/01/21 07:32:37;;;;;;;4.13;2.60;;;0.10;99.90;;;;;;5098302;28;20011;-42
2024/01/21 07:35:03;;;;;;;3.92;2.53;;;0.10;99.90;;;;;;5097576;28;20024;-42
2024/01/21 07:37:29;;;;;;;4.72;2.10;;;0.10;99.90;;;;;;5094172;28;20100;-40
2024/01/21 07:39:54;;;;;;;3.72;2.42;;;0.10;99.40;;;;;;5096663;28;20059;-42
2024/01/21 07:42:20;;;;;;;3.08;2.60;;;0.20;99.70;;;;;;5100137;28;20482;-45
2024/01/21 07:44:45;;;;;;;12.27;2.70;;;0.30;98.30;;;;;;5097134;28;20020;-42
2024/01/21 07:47:11;;;;;;;6.55;2.42;;;0.20;99.90;;;;;;5099148;28;20028;-43
2024/01/21 07:49:36;;;;;;;5.63;2.40;;;0.20;98.70;;;;;;5097302;28;20027;-43
2024/01/21 07:52:02;;;;;;;4.63;2.67;;;0.30;99.90;;;;;;5097606;28;20158;-42
2024/01/21 07:54:28;;;;;;;7.18;3.10;;;0.30;99.90;;;;;;5099478;28;20685;-41
2024/01/21 07:56:53;;;;;;;5.35;2.67;;;0.30;99.90;;;;;;5096445;28;20106;-43
2024/01/21 07:59:19;;;;;;;5.03;2.85;;;0.40;99.90;;;;;;5100067;28;20201;-42
2024/01/21 08:01:44;;;;;;;7.22;3.70;;;0.40;99.90;;;;;;5097101;28;20043;-39
2024/01/21 08:04:10;;;;;;;4.43;2.88;;;0.40;98.90;;;;;;5098580;28;20134;-40
2024/01/21 08:06:36;;;;;;;4.90;2.72;;;0.50;99.90;;;;;;5098804;28;20055;-42
2024/01/21 08:09:01;;;;;;;6.88;3.00;;;0.40;99.70;;;;;;5097374;28;20028;-41
2024/01/21 08:11:27;;;;;;;5.63;2.70;;;0.50;99.90;;;;;;5100043;28;20032;-41
2024/01/21 08:13:53;;;;;;;4.35;2.58;;;0.50;99.90;;;;;;5097060;28;20024;-42
2024/01/21 08:16:18;;;;;;;5.70;2.88;;;0.50;99.90;;;;;;5098439;28;20450;-42
2024/01/21 08:18:44;;;;;;;4.90;3.08;;;0.60;99.90;;;;;;5097873;28;20058;-42
2024/01/21 08:21:10;;;;;;;7.38;3.03;;;0.60;99.90;;;;;;5099176;28;20102;-43
2024/01/21 08:23:35;;;;;;;6.07;3.10;;;0.70;99.90;;;;;;5099793;28;20473;-43
2024/01/21 08:26:04;;;;;;;4.25;2.50;;;0.70;98.80;;;;;;5102501;28;20024;-42
2024/01/21 08:28:30;;;;;;;7.90;3.42;;;0.90;97.50;;;;;;5101259;28;20023;-41
2024/01/21 08:30:55;;;;;;;7.13;3.00;;;0.90;98.70;;;;;;5096926;28;20370;-42
2024/01/21 08:33:21;;;;;;;6.57;2.65;;;1.00;98.40;;;;;;5100529;28;20035;-44
2024/01/21 08:35:46;;;;;;;4.85;3.25;;;1.10;96.80;;;;;;5097417;27;20039;-41
2024/01/21 08:38:12;;;;;;;4.65;2.90;;;1.20;98.40;;;;;;5099065;28;20036;-41
2024/01/21 08:40:38;;;;;;;4.90;3.17;;;1.20;97.10;;;;;;5098170;28;20035;-41
2024/01/21 08:43:04;;;;;;;5.63;3.08;;;1.30;94.90;;;;;;5097801;28;20140;-40
2024/01/21 08:45:29;;;;;;;5.72;3.45;;;1.40;95.80;;;;;;5100109;28;20035;-42
2024/01/21 08:47:55;;;;;;;6.10;3.42;;;1.50;96.60;;;;;;5095951;28;20473;-41
2024/01/21 08:50:21;;;;;;;4.95;2.88;;;1.50;98.20;;;;;;5095878;28;20034;-41
2024/01/21 08:52:46;;;;;;;7.82;2.88;;;1.60;95.30;;;;;;5098378;28;20488;-42
2024/01/21 08:55:12;;;;;;;4.82;2.50;;;1.70;96.00;;;;;;5099080;28;20426;-41
2024/01/21 08:57:38;;;;;;;4.68;2.33;;;1.80;94.80;;;;;;5099337;28;20145;-40
2024/01/21 09:00:05;;;;;;;6.10;2.97;;;1.90;93.30;;;;;;5096339;28;20028;-42
2024/01/21 09:02:31;;;;;;;4.30;2.45;;;1.90;95.10;;;;;;5100187;28;20078;-41
2024/01/21 09:04:56;;;;;;;4.22;2.33;;;2.00;94.10;;;;;;5096704;28;20016;-41
2024/01/21 09:07:22;;;;;;;6.97;2.28;;;2.00;92.70;;;;;;5095939;28;20032;-41
2024/01/21 09:09:47;;;;;;;6.95;2.20;;;2.00;89.90;;;;;;5097967;28;20031;-40
2024/01/21 09:12:15;;;;;;;3.70;2.30;;;2.10;86.20;;;;;;5099204;28;20024;-41
2024/01/21 09:14:42;;;;;;;5.55;1.98;;;2.10;84.20;;;;;;5099634;28;20463;-41
2024/01/21 09:17:07;;;;;;;4.53;1.90;;;2.20;84.10;;;;;;5096924;28;20039;-42
2024/01/21 09:19:33;;;;;;;4.43;1.60;;;2.30;83.70;;;;;;5100220;28;20031;-41
2024/01/21 09:21:58;;;;;;;10.25;2.35;;;2.40;79.70;;;;;;5097007;28;20050;-43
2024/01/21 09:24:24;;;;;;;4.15;2.40;;;2.60;78.40;;;;;;5099487;28;20473;-42
2024/01/21 09:26:50;;;;;;;6.97;1.90;;;2.70;78.40;;;;;;5095778;28;20451;-42
2024/01/21 09:29:16;;;;;;;8.35;2.33;;;2.90;75.00;;;;;;5096446;28;20034;-42
2024/01/21 09:31:41;;;;;;;9.25;1.70;;;3.10;72.00;;;;;;5097456;28;20111;-44
2024/01/21 09:34:08;;;;;;;2.75;1.63;;;3.30;71.80;;;;;;5098937;28;20032;-42
2024/01/21 09:36:34;;;;;;;1.70;1.27;;;3.50;69.90;;;;;;5098645;28;20036;-41
2024/01/21 09:39:01;;;;;;;1.60;1.20;;;3.70;66.80;;;;;;5098303;28;20024;-41
2024/01/21 09:41:38;;;;;;;2.55;1.48;;;4.00;64.70;;;;;;5095835;28;20273;-41
2024/01/21 09:44:04;;;;;;;2.83;1.20;;;4.30;63.60;;;;;;5096592;28;20477;-42
2024/01/21 09:46:29;;;;;;;3.35;1.45;;;4.40;62.20;;;;;;5100358;28;20077;-42
2024/01/21 09:48:57;;;;;;;2.17;1.30;;;4.70;62.90;;;;;;5098258;28;20051;-41
2024/01/21 09:51:23;;;;;;;6.97;1.13;;;5.00;60.70;;;;;;5091675;28;20515;-42
2024/01/21 09:53:49;;;;;;;6.22;1.98;;;5.10;59.70;;;;;;5098162;28;20027;-42
2024/01/21 09:56:16;;;;;;;2.85;1.70;;;5.20;59.00;;;;;;5099746;28;20028;-42
2024/01/21 09:58:50;;;;;;;5.95;1.85;;;5.30;60.20;;;;;;5092570;28;20020;-42
2024/01/21 10:01:17;;;;;;;1.67;1.15;;;5.30;58.50;;;;;;5103618;28;20567;-42
2024/01/21 10:03:46;;;;;;;4.35;1.73;;;5.40;59.50;;;;;;5095099;28;20023;-42
2024/01/21 10:06:12;;;;;;;5.28;1.63;;;5.40;58.60;;;;;;5106704;28;20035;-42
2024/01/21 10:08:42;;;;;;;7.43;1.98;;;5.30;60.50;;;;;;5098681;28;20395;-43
2024/01/21 10:11:08;;;;;;;4.38;1.98;;;5.30;59.60;;;;;;5102800;28;20032;-42
2024/01/21 10:13:38;;;;;;;6.05;1.52;;;5.30;61.10;;;;;;5099931;28;20163;-42
2024/01/21 10:16:08;;;;;;;5.13;1.58;;;5.30;60.20;;;;;;5100150;28;20032;-41
2024/01/21 10:18:34;;;;;;;6.68;1.80;;;5.20;59.80;;;;;;5105683;28;20038;-44
2024/01/21 10:21:03;;;;;;;3.40;1.70;;;5.20;60.00;;;;;;5102531;28;20012;-43
2024/01/21 10:23:29;;;;;;;9.95;1.95;;;5.20;61.30;;;;;;5106079;28;20027;-43
2024/01/21 10:25:54;;;;;;;11.55;1.90;;;5.20;60.70;;;;;;5103026;28;20028;-42
2024/01/21 10:28:22;;;;;;;7.82;2.20;;;5.30;59.80;;;;;;5105391;28;20422;-42
2024/01/21 10:30:48;;;;;;;3.15;1.88;;;5.20;60.90;;;;;;5102826;28;20023;-42
2024/01/21 10:33:13;;;;;;;15.85;2.40;;;5.20;61.20;;;;;;5104284;28;20500;-40
2024/01/21 10:35:40;;;;;;;12.38;2.83;;;5.20;61.50;;;;;;5105132;28;20020;-42
2024/01/21 10:38:11;;;;;;;10.63;1.80;;;5.20;62.00;;;;;;5102352;28;20020;-40
2024/01/21 10:40:43;;;;;;;5.85;1.65;;;5.20;62.90;;;;;;5106011;28;20033;-41
2024/01/21 10:43:16;;;;;;;8.90;1.90;;;5.20;63.60;;;;;;5103581;28;20028;-41
2024/01/21 10:45:46;;;;;;;10.48;2.20;;;5.20;63.00;;;;;;5105714;27;20027;-42
2024/01/21 10:48:15;;;;;;;10.57;2.67;;;5.30;64.10;;;;;;5100804;28;20038;-41
2024/01/21 10:50:44;;;;;;;6.85;2.13;;;5.30;63.80;;;;;;5097277;28;20119;-41
2024/01/21 10:53:13;;;;;;;10.05;2.58;;;5.40;64.40;;;;;;5098962;28;20076;-44
2024/01/21 10:55:40;;;;;;;8.25;2.22;;;5.40;65.70;;;;;;5106320;28;20020;-41
2024/01/21 10:58:07;;;;;;;6.22;2.30;;;5.30;66.10;;;;;;5090647;28;20028;-42
2024/01/21 11:00:34;;;;;;;6.07;2.35;;;5.30;67.00;;;;;;5088380;28;20032;-42
2024/01/21 11:03:20;;;;;;;6.72;2.45;;;5.30;65.70;;;;;;5090054;28;20157;-45
2024/01/21 11:05:47;;;;;;;5.57;2.67;;;5.30;65.80;;;;;;5090835;28;20082;-44
2024/01/21 11:08:15;;;;;;;6.32;2.88;;;5.30;65.80;;;;;;5097520;28;20016;-41
2024/01/21 11:10:40;;;;;;;4.03;2.13;;;5.20;67.00;;;;;;5104657;28;20015;-41
2024/01/21 11:13:09;;;;;;;4.72;2.03;;;5.20;66.50;;;;;;5104152;28;20031;-44
2024/01/21 11:15:35;;;;;;;4.25;2.17;;;5.10;67.30;;;;;;5106244;27;20031;-42
2024/01/21 11:18:11;;;;;;;2.30;2.00;;;5.10;67.50;;;;;;5103965;28;20027;-43
2024/01/21 11:20:39;;;;;;;3.72;2.38;;;5.10;67.60;;;;;;5105799;28;20372;-42
2024/01/21 11:23:14;;;;;;;4.07;2.15;;;5.10;68.30;;;;;;5103136;28;20024;-42
2024/01/21 11:25:50;;;;;;;6.70;2.65;;;5.20;68.20;;;;;;5093973;28;20114;-42
2024/01/21 11:28:29;;;;;;;3.47;2.47;;;5.20;68.40;;;;;;5092663;28;20080;-45
2024/01/21 11:31:06;;;;;;;10.07;2.53;;;5.20;68.30;;;;;;5090714;28;20024;-43
2024/01/21 11:33:32;;;;;;;6.93;2.80;;;5.10;68.50;;;;;;5096962;28;20519;-42
2024/01/21 11:35:59;;;;;;;4.47;2.53;;;5.10;68.50;;;;;;5100895;28;20027;-42
2024/01/21 11:38:28;;;;;;;9.30;2.85;;;5.10;68.70;;;;;;5106411;28;20016;-44
2024/01/21 11:41:05;;;;;;;5.30;2.22;;;5.20;68.90;;;;;;5104361;28;20030;-43
2024/01/21 11:43:31;;;;;;;6.20;2.88;;;5.10;69.10;;;;;;5094703;28;20019;-42
2024/01/21 11:45:58;;;;;;;6.53;2.75;;;5.10;69.40;;;;;;5105030;28;20050;-42
2024/01/21 11:48:30;;;;;;;4.35;2.80;;;5.10;70.40;;;;;;5093367;28;20024;-42
2024/01/21 11:50:56;;;;;;;8.32;3.53;;;5.10;69.10;;;;;;5103154;28;20024;-44
2024/01/21 11:53:22;;;;;;;9.25;3.10;;;5.10;69.30;;;;;;5103524;28;20024;-42
2024/01/21 11:55:48;;;;;;;4.43;2.90;;;5.10;68.70;;;;;;5105796;28;20038;-42
2024/01/21 11:58:15;;;;;;;5.38;2.70;;;5.10;70.20;;;;;;5105046;28;20412;-42
2024/01/21 12:00:41;;;;;;;6.95;3.50;;;5.10;69.50;;;;;;5104575;28;20046;-42
2024/01/21 12:03:06;;;;;;;6.18;3.33;;;5.10;68.40;;;;;;5104673;28;20032;-41
2024/01/21 12:05:34;;;;;;;4.38;3.05;;;5.10;67.50;;;;;;5105087;28;20462;-41
2024/01/21 12:08:01;;;;;;;5.60;3.72;;;5.00;68.60;;;;;;5104618;28;20445;-41
2024/01/21 12:10:26;;;;;;;12.85;3.03;;;5.00;69.30;;;;;;5092804;28;20110;-41
2024/01/21 12:12:52;;;;;;;8.60;3.42;;;5.00;69.60;;;;;;5095745;28;20100;-42
2024/01/21 12:15:17;;;;;;;9.40;4.68;;;5.00;68.40;;;;;;5095919;28;20112;-41
2024/01/21 12:17:55;;;;;;;5.22;3.08;;;5.00;68.50;;;;;;5089765;28;20473;-42
2024/01/21 12:20:21;;;;;;;6.32;3.25;;;5.00;68.70;;;;;;5089576;28;20027;-41
2024/01/21 12:22:48;;;;;;;7.18;3.60;;;5.00;69.40;;;;;;5091495;28;20027;-41
2024/01/21 12:25:13;;;;;;;7.57;3.65;;;5.00;69.70;;;;;;5092499;28;20020;-41
2024/01/21 12:27:46;;;;;;;8.27;4.97;;;5.00;69.30;;;;;;5106618;28;20024;-41
2024/01/21 12:30:13;;;;;;;7.78;4.03;;;5.00;69.10;;;;;;5104534;28;20020;-40
2024/01/21 12:32:40;;;;;;;8.68;4.43;;;5.00;69.90;;;;;;5106385;28;20073;-42
2024/01/21 12:35:06;;;;;;;7.63;5.07;;;5.00;70.30;;;;;;5105452;28;20055;-42
2024/01/21 12:37:32;;;;;;;11.18;4.28;;;5.00;69.40;;;;;;5105374;28;20027;-41
2024/01/21 12:40:00;;;;;;;7.65;4.47;;;5.00;70.10;;;;;;5105255;28;20077;-42
2024/01/21 12:42:25;;;;;;;9.23;4.53;;;5.00;70.60;;;;;;5106393;28;20008;-41
2024/01/21 12:44:51;;;;;;;8.10;3.92;;;5.00;70.90;;;;;;5105685;28;20028;-41
2024/01/21 12:47:17;;;;;;;6.38;4.40;;;5.10;72.60;;;;;;5089342;28;20037;-42
2024/01/21 12:49:42;;;;;;;6.55;3.90;;;5.20;71.90;;;;;;5089168;28;20023;-44
2024/01/21 12:52:08;;;;;;;5.72;3.65;;;5.20;72.80;;;;;;5088419;28;20031;-42
2024/01/21 12:54:33;;;;;;;8.27;4.50;;;5.30;73.30;;;;;;5086295;28;20031;-42